createdAt,value
2023-04-11T00:01:34.797Z,15.2
2023-04-11T00:04:01.484Z,15.2
2023-04-11T00:06:28.155Z,15.2
2023-04-11T00:08:54.863Z,15.2
2023-04-11T00:11:21.550Z,15.3
2023-04-11T00:13:48.228Z,15.2
2023-04-11T00:16:14.900Z,15.2
2023-04-11T00:18:41.580Z,15.2
2023-04-11T00:21:08.264Z,15.1
2023-04-11T00:23:34.957Z,15.1
2023-04-11T00:26:01.640Z,15.2
2023-04-11T00:28:28.331Z,15.1
2023-04-11T00:30:55.003Z,15.1
2023-04-11T00:33:20.244Z,15
2023-04-11T00:35:46.915Z,14.9
2023-04-11T00:38:13.611Z,14.9
2023-04-11T00:40:40.282Z,14.9
2023-04-11T00:43:06.966Z,14.9
2023-04-11T00:45:33.661Z,14.9
2023-04-11T00:48:00.342Z,14.9
2023-04-11T00:50:27.030Z,15
2023-04-11T00:52:53.714Z,15
2023-04-11T00:57:47.075Z,15
2023-04-11T01:00:13.754Z,15
2023-04-11T01:02:40.451Z,15.1
2023-04-11T01:05:05.680Z,15.1
2023-04-11T01:07:32.400Z,15.1
2023-04-11T01:09:59.042Z,15.1
2023-04-11T01:12:25.731Z,15.1
2023-04-11T01:14:52.433Z,15.1
2023-04-11T01:17:19.111Z,15
2023-04-11T01:19:45.797Z,15.1
2023-04-11T01:22:12.468Z,15.2
2023-04-11T01:24:39.164Z,15.3
2023-04-11T01:27:05.831Z,15.3
2023-04-11T01:29:32.531Z,15.3
2023-04-11T01:31:59.215Z,15.4
2023-04-11T01:34:25.903Z,15.3
2023-04-11T01:36:51.137Z,15.1
2023-04-11T01:39:17.818Z,15.1
2023-04-11T01:41:44.488Z,15
2023-04-11T01:44:11.190Z,15
2023-04-11T01:46:37.869Z,14.9
2023-04-11T01:49:04.553Z,14.9
2023-04-11T01:51:31.226Z,15
2023-04-11T01:53:57.931Z,14.9
2023-04-11T01:56:24.605Z,14.7
2023-04-11T01:58:51.286Z,14.5
2023-04-11T02:01:17.990Z,14.3
2023-04-11T02:03:44.660Z,14.2
2023-04-11T02:06:11.336Z,14.1
2023-04-11T02:08:36.569Z,14.1
2023-04-11T02:11:03.247Z,14.1
2023-04-11T02:13:29.928Z,14
2023-04-11T02:15:56.621Z,13.9
2023-04-11T02:18:23.349Z,13.9
2023-04-11T02:20:49.983Z,13.8
2023-04-11T02:23:16.693Z,13.8
2023-04-11T02:25:43.362Z,13.8
2023-04-11T02:28:10.041Z,13.7
2023-04-11T02:30:36.733Z,13.7
2023-04-11T02:33:03.420Z,13.5
2023-04-11T02:35:30.093Z,13.3
2023-04-11T02:37:56.787Z,13
2023-04-11T02:40:22.033Z,12.7
2023-04-11T02:42:48.682Z,12.6
2023-04-11T02:45:15.358Z,12.3
2023-04-11T02:47:42.056Z,12.2
2023-04-11T02:50:08.724Z,12
2023-04-11T02:52:35.423Z,11.9
2023-04-11T02:55:02.102Z,11.8
2023-04-11T02:57:28.798Z,11.7
2023-04-11T02:59:55.469Z,11.7
2023-04-11T03:02:22.146Z,11.6
2023-04-11T03:04:48.842Z,11.6
2023-04-11T03:07:15.523Z,11.6
2023-04-11T03:09:42.206Z,11.5
2023-04-11T03:12:07.449Z,11.5
2023-04-11T03:14:34.110Z,11.5
2023-04-11T03:17:00.788Z,11.5
2023-04-11T03:19:27.515Z,11.5
2023-04-11T03:21:54.173Z,11.5
2023-04-11T03:24:20.859Z,11.4
2023-04-11T03:26:47.537Z,11.4
2023-04-11T03:29:14.208Z,11.3
2023-04-11T03:31:40.892Z,11.3
2023-04-11T03:34:07.591Z,11.3
2023-04-11T03:39:00.958Z,11.2
2023-04-11T03:41:27.642Z,11.2
2023-04-11T03:43:52.861Z,11.2
2023-04-11T03:46:19.552Z,11.2
2023-04-11T03:48:46.234Z,11.1
2023-04-11T03:51:12.919Z,11
2023-04-11T03:53:39.602Z,11
2023-04-11T03:56:06.296Z,11
2023-04-11T03:58:32.963Z,11
2023-04-11T04:00:59.651Z,10.9
2023-04-11T04:03:26.330Z,10.8
2023-04-11T04:05:53.017Z,10.8
2023-04-11T04:08:19.691Z,10.8
2023-04-11T04:10:46.383Z,10.7
2023-04-11T04:13:13.066Z,10.7
2023-04-11T04:15:38.320Z,10.6
2023-04-11T04:18:04.973Z,10.5
2023-04-11T04:20:31.665Z,10.5
2023-04-11T04:22:58.343Z,10.5
2023-04-11T04:25:25.035Z,10.4
2023-04-11T04:27:51.720Z,10.4
2023-04-11T04:30:18.432Z,10.4
2023-04-11T04:32:45.091Z,10.4
2023-04-11T04:35:11.777Z,10.4
2023-04-11T04:37:38.453Z,10.4
2023-04-11T04:40:05.142Z,10.3
2023-04-11T04:42:31.830Z,10.3
2023-04-11T04:44:58.511Z,10.4
2023-04-11T04:47:23.731Z,10.3
2023-04-11T04:49:50.418Z,10.4
2023-04-11T04:52:17.100Z,10.4
2023-04-11T04:54:43.782Z,10.3
2023-04-11T04:57:10.477Z,10.3
2023-04-11T04:59:37.159Z,10.4
2023-04-11T05:02:03.843Z,10.4
2023-04-11T05:04:30.524Z,10.4
2023-04-11T05:06:57.224Z,10.4
2023-04-11T05:09:23.943Z,10.4
2023-04-11T05:11:50.629Z,10.5
2023-04-11T05:14:17.266Z,10.5
2023-04-11T05:16:43.953Z,10.4
2023-04-11T05:19:09.169Z,10.4
2023-04-11T05:21:35.850Z,10.3
2023-04-11T05:24:02.543Z,10.3
2023-04-11T05:26:29.222Z,10.3
2023-04-11T05:28:55.913Z,10.2
2023-04-11T05:31:22.594Z,10.2
2023-04-11T05:33:49.284Z,10.1
2023-04-11T05:36:15.964Z,10.1
2023-04-11T05:38:42.657Z,10
2023-04-11T05:41:09.330Z,9.9
2023-04-11T05:43:36.030Z,9.8
2023-04-11T05:46:02.710Z,9.7
2023-04-11T05:48:29.398Z,9.7
2023-04-11T05:50:56.085Z,9.6
2023-04-11T05:53:22.766Z,9.6
2023-04-11T05:55:47.977Z,9.6
2023-04-11T05:58:14.676Z,9.5
2023-04-11T06:00:41.347Z,9.6
2023-04-11T06:03:08.111Z,9.6
2023-04-11T06:05:34.710Z,9.6
2023-04-11T06:08:01.394Z,9.5
2023-04-11T06:10:28.153Z,9.5
2023-04-11T06:12:54.764Z,9.5
2023-04-11T06:15:21.448Z,9.5
2023-04-11T06:17:48.145Z,9.5
2023-04-11T06:20:14.822Z,9.5
2023-04-11T06:22:41.507Z,9.5
2023-04-11T06:25:08.187Z,9.5
2023-04-11T06:27:33.401Z,9.5
2023-04-11T06:30:00.124Z,9.5
2023-04-11T06:32:26.784Z,9.5
2023-04-11T06:34:53.472Z,9.5
2023-04-11T06:37:20.152Z,9.5
2023-04-11T06:39:46.850Z,9.5
2023-04-11T06:42:13.533Z,9.5
2023-04-11T06:44:40.214Z,9.6
2023-04-11T06:47:06.889Z,9.5
2023-04-11T06:49:33.578Z,9.5
2023-04-11T06:52:00.272Z,9.6
2023-04-11T06:54:26.941Z,9.6
2023-04-11T06:56:53.640Z,9.7
2023-04-11T06:59:18.854Z,9.7
2023-04-11T07:01:45.536Z,9.8
2023-04-11T07:04:12.216Z,9.9
2023-04-11T07:06:38.905Z,9.9
2023-04-11T07:09:04.141Z,10
2023-04-11T07:11:30.832Z,10.1
2023-04-11T07:13:57.503Z,10.2
2023-04-11T07:16:24.203Z,10.2
2023-04-11T07:18:50.904Z,10.2
2023-04-11T07:21:17.576Z,10.2
2023-04-11T07:23:44.267Z,10.2
2023-04-11T07:31:04.303Z,10.1
2023-04-11T07:33:30.995Z,10.1
2023-04-11T07:35:57.662Z,10.3
2023-04-11T07:38:24.362Z,10.6
2023-04-11T07:40:49.559Z,10.7
2023-04-11T07:43:16.251Z,10.6
2023-04-11T07:45:42.945Z,10.8
2023-04-11T07:48:09.652Z,11.1
2023-04-11T07:50:36.313Z,11
2023-04-11T07:53:02.993Z,11
2023-04-11T07:55:29.677Z,11.1
2023-04-11T07:57:56.381Z,11.1
2023-04-11T08:00:23.069Z,11.1
2023-04-11T08:02:49.737Z,11
2023-04-11T08:05:16.412Z,11
2023-04-11T08:07:43.104Z,11
2023-04-11T08:10:09.786Z,11.2
2023-04-11T08:12:35.060Z,11.6
2023-04-11T08:17:28.401Z,12.2
2023-04-11T08:19:55.092Z,12.5
2023-04-11T08:22:21.773Z,12.9
2023-04-11T08:24:48.451Z,13.2
2023-04-11T08:27:15.120Z,13.5
2023-04-11T08:29:41.839Z,14
2023-04-11T08:32:08.500Z,14.2
2023-04-11T08:34:35.204Z,14.3
2023-04-11T08:37:01.866Z,14.5
2023-04-11T08:39:28.562Z,14.4
2023-04-11T08:41:55.247Z,14.6
2023-04-11T08:44:21.925Z,13.9
2023-04-11T08:46:47.143Z,13.5
2023-04-11T08:49:13.829Z,14
2023-04-11T08:51:40.505Z,14.8
2023-04-11T08:54:07.192Z,14.4
2023-04-11T08:56:33.876Z,14.3
2023-04-11T08:59:00.582Z,14.5
2023-04-11T09:01:27.246Z,15.1
2023-04-11T09:03:53.957Z,15.3
2023-04-11T09:06:20.611Z,15.9
2023-04-11T09:08:47.304Z,15.6
2023-04-11T09:11:13.985Z,15
2023-04-11T09:13:40.667Z,15.4
2023-04-11T09:16:07.358Z,16.1
2023-04-11T09:18:32.574Z,16.6
2023-04-11T09:20:59.258Z,16.9
2023-04-11T09:23:25.950Z,17.7
2023-04-11T09:25:52.643Z,17.4
2023-04-11T09:28:19.317Z,18
2023-04-11T09:30:46.181Z,18.7
2023-04-11T09:33:12.694Z,19.1
2023-04-11T09:35:39.369Z,18.8
2023-04-11T09:38:06.057Z,18.5
2023-04-11T09:40:32.736Z,18.5
2023-04-11T09:42:59.420Z,17.4
2023-04-11T09:45:26.120Z,16.3
2023-04-11T09:47:52.806Z,16.9
2023-04-11T09:50:18.015Z,18.6
2023-04-11T09:52:44.795Z,17.9
2023-04-11T09:55:11.397Z,17.7
2023-04-11T09:57:38.072Z,17.9
2023-04-11T10:00:04.810Z,17.9
2023-04-11T10:02:31.429Z,17.7
2023-04-11T10:04:58.124Z,18.8
2023-04-11T10:07:24.808Z,19.6
2023-04-11T10:09:51.497Z,20
2023-04-11T10:12:18.173Z,20.2
2023-04-11T10:14:44.860Z,20.2
2023-04-11T10:17:11.548Z,19.9
2023-04-11T10:19:38.207Z,19.1
2023-04-11T10:22:03.464Z,17.6
2023-04-11T10:24:30.135Z,16.8
2023-04-11T10:26:56.813Z,16.4
2023-04-11T10:29:23.516Z,17
2023-04-11T10:31:50.201Z,17
2023-04-11T10:34:16.874Z,17.2
2023-04-11T10:36:43.553Z,17.2
2023-04-11T10:39:10.239Z,17.1
2023-04-11T10:41:36.927Z,16.6
2023-04-11T10:44:03.613Z,16.4
2023-04-11T10:46:30.464Z,16
2023-04-11T10:48:57.149Z,15.7
2023-04-11T10:51:23.854Z,15.6
2023-04-11T10:53:49.026Z,15.6
2023-04-11T10:56:15.716Z,15.3
2023-04-11T10:58:42.413Z,15.1
2023-04-11T11:01:09.109Z,15.1
2023-04-11T11:03:35.839Z,15.2
2023-04-11T11:06:02.528Z,15.4
2023-04-11T11:08:29.182Z,15.6
2023-04-11T11:10:55.826Z,15.6
2023-04-11T11:13:22.547Z,15.5
2023-04-11T11:15:49.348Z,15.6
2023-04-11T11:18:15.872Z,15.8
2023-04-11T11:20:42.593Z,16.3
2023-04-11T11:23:09.326Z,16
2023-04-11T11:25:34.326Z,16.4
2023-04-11T11:28:01.015Z,16.1
2023-04-11T11:30:27.880Z,16.3
2023-04-11T11:32:54.533Z,16.8
2023-04-11T11:35:21.214Z,16.5
2023-04-11T11:37:47.931Z,16.6
2023-04-11T11:40:14.432Z,16.6
2023-04-11T11:42:41.277Z,16.3
2023-04-11T11:45:07.801Z,16.6
2023-04-11T11:47:34.618Z,17
2023-04-11T11:52:28.013Z,17
2023-04-11T11:54:54.717Z,16.7
2023-04-11T11:57:19.896Z,16.8
2023-04-11T12:02:13.243Z,16.9
2023-04-11T12:04:39.996Z,17.2
2023-04-11T12:07:06.696Z,17.4
2023-04-11T12:09:33.422Z,17.1
2023-04-11T12:11:59.870Z,17.1
2023-04-11T12:14:26.726Z,17.1
2023-04-11T12:16:53.411Z,16.9
2023-04-11T12:19:20.100Z,17
2023-04-11T12:21:46.752Z,16.9
2023-04-11T12:24:13.462Z,16.7
2023-04-11T12:26:40.111Z,16.5
2023-04-11T12:29:05.363Z,16.5
2023-04-11T12:31:31.932Z,16.5
2023-04-11T12:33:58.614Z,16.3
2023-04-11T12:36:25.419Z,16.3
2023-04-11T12:38:51.922Z,16.1
2023-04-11T12:41:18.788Z,16.1
2023-04-11T12:43:45.288Z,16.3
2023-04-11T12:46:12.162Z,16.7
2023-04-11T12:51:05.514Z,16.8
2023-04-11T12:53:32.194Z,17
2023-04-11T12:55:58.907Z,16.9
2023-04-11T12:58:25.565Z,16.6
2023-04-11T13:00:50.827Z,16.7
2023-04-11T13:05:44.218Z,16.4
2023-04-11T13:08:10.680Z,16.7
2023-04-11T13:10:37.527Z,16.5
2023-04-11T13:13:04.213Z,16.5
2023-04-11T13:15:30.926Z,16.7
2023-04-11T13:17:57.587Z,16.7
2023-04-11T13:22:50.940Z,16.8
2023-04-11T13:25:16.304Z,16.7
2023-04-11T13:27:41.435Z,16.9
2023-04-11T13:30:08.125Z,16.8
2023-04-11T13:32:34.723Z,16.8
2023-04-11T13:35:01.408Z,16.6
2023-04-11T13:37:28.174Z,16.7
2023-04-11T13:39:54.998Z,17.1
2023-04-11T13:42:21.464Z,17.2
2023-04-11T13:44:48.168Z,17.3
2023-04-11T13:47:14.843Z,17.4
2023-04-11T13:49:41.517Z,17.5
2023-04-11T13:52:06.723Z,17.5
2023-04-11T13:54:31.999Z,17.4
2023-04-11T13:56:58.681Z,17.2
2023-04-11T13:59:25.432Z,17.2
2023-04-11T14:01:52.066Z,17
2023-04-11T14:04:18.725Z,16.9
2023-04-11T14:06:45.250Z,16.9
2023-04-11T14:09:12.065Z,16.8
2023-04-11T14:11:38.767Z,16.7
2023-04-11T14:14:05.368Z,16.6
2023-04-11T14:16:32.121Z,16.7
2023-04-11T14:18:58.841Z,16.5
2023-04-11T14:21:25.522Z,16.6
2023-04-11T14:23:52.032Z,16.6
2023-04-11T14:26:17.400Z,16.3
2023-04-11T14:28:44.020Z,16.2
2023-04-11T14:31:10.682Z,16.4
2023-04-11T14:33:37.365Z,16.3
2023-04-11T14:38:30.862Z,16.1
2023-04-11T14:40:57.516Z,16.1
2023-04-11T14:43:24.169Z,16.1
2023-04-11T14:45:50.831Z,16.3
2023-04-11T14:48:17.344Z,16.3
2023-04-11T14:50:44.146Z,16.4
2023-04-11T14:53:10.847Z,16.4
2023-04-11T14:55:37.566Z,16.2
2023-04-11T14:58:04.223Z,16
2023-04-11T15:00:29.402Z,15.9
2023-04-11T15:02:55.971Z,15.7
2023-04-11T15:05:22.725Z,15.5
2023-04-11T15:07:49.550Z,15.5
2023-04-11T15:10:16.036Z,15.4
2023-04-11T15:12:42.885Z,15.4
2023-04-11T15:15:09.516Z,15.4
2023-04-11T15:17:36.193Z,15.4
2023-04-11T15:20:01.630Z,15.5
2023-04-11T15:22:27.996Z,15.5
2023-04-11T15:24:54.861Z,15.4
2023-04-11T15:27:21.475Z,15.4
2023-04-11T15:29:48.275Z,15.4
2023-04-11T15:32:14.729Z,15.3
2023-04-11T15:34:41.601Z,15.3
2023-04-11T15:37:08.278Z,15.3
2023-04-11T15:39:34.912Z,15.3
2023-04-11T15:42:01.674Z,15.3
2023-04-11T15:44:28.158Z,15.4
2023-04-11T15:46:55.003Z,15.4
2023-04-11T15:49:21.659Z,15.4
2023-04-11T15:51:46.920Z,15.4
2023-04-11T15:54:13.611Z,15.4
2023-04-11T15:56:40.115Z,15.4
2023-04-11T15:59:06.966Z,15.4
2023-04-11T16:01:33.649Z,15.3
2023-04-11T16:04:00.276Z,15.3
2023-04-11T16:06:27.075Z,15.2
2023-04-11T16:08:53.708Z,15.1
2023-04-11T16:11:20.405Z,15
2023-04-11T16:13:46.895Z,15
2023-04-11T16:16:13.784Z,14.9
2023-04-11T16:18:40.469Z,14.9
2023-04-11T16:21:07.154Z,14.9
2023-04-11T16:23:32.333Z,14.9
2023-04-11T16:25:59.019Z,14.8
2023-04-11T16:28:25.702Z,14.8
2023-04-11T16:30:52.414Z,14.9
2023-04-11T16:33:19.156Z,14.9
2023-04-11T16:35:45.800Z,14.9
2023-04-11T16:38:12.459Z,14.9
2023-04-11T16:40:39.167Z,14.8
2023-04-11T16:43:05.669Z,14.6
2023-04-11T16:45:32.513Z,14.6
2023-04-11T16:47:59.384Z,14.5
2023-04-11T16:50:25.889Z,14.3
2023-04-11T16:52:52.600Z,14.2
2023-04-11T16:55:17.786Z,14.2
2023-04-11T16:57:44.302Z,14.1
2023-04-11T17:00:11.086Z,14
2023-04-11T17:02:37.846Z,13.9
2023-04-11T17:05:04.593Z,13.9
2023-04-11T17:07:31.101Z,13.8
2023-04-11T17:09:57.723Z,13.7
2023-04-11T17:12:24.586Z,13.7
2023-04-11T17:14:51.283Z,13.6
2023-04-11T17:17:17.962Z,13.5
2023-04-11T17:19:44.630Z,13.5
2023-04-11T17:22:11.308Z,13.5
2023-04-11T17:24:37.983Z,13.4
2023-04-11T17:27:03.201Z,13.3
2023-04-11T17:29:29.921Z,13.3
2023-04-11T17:31:56.603Z,13.2
2023-04-11T17:34:23.295Z,13.2
2023-04-11T17:36:49.983Z,13.1
2023-04-11T17:39:16.709Z,13.1
2023-04-11T17:41:43.354Z,13
2023-04-11T17:44:09.862Z,12.9
2023-04-11T17:46:36.699Z,12.7
2023-04-11T17:49:03.242Z,12.6
2023-04-11T17:51:30.053Z,12.5
2023-04-11T17:53:56.595Z,12.5
2023-04-11T17:56:23.374Z,12.5
2023-04-11T17:58:48.731Z,12.4
2023-04-11T18:01:15.198Z,12.2
2023-04-11T18:03:41.855Z,12.1
2023-04-11T18:06:08.706Z,11.9
2023-04-11T18:08:35.413Z,11.7
2023-04-11T18:11:02.112Z,11.5
2023-04-11T18:13:28.785Z,11.3
2023-04-11T18:15:55.491Z,11.1
2023-04-11T18:18:22.220Z,10.9
2023-04-11T18:20:48.796Z,10.7
2023-04-11T18:23:15.340Z,10.7
2023-04-11T18:25:42.173Z,10.7
2023-04-11T18:28:08.851Z,10.6
2023-04-11T18:30:34.106Z,10.7
2023-04-11T18:33:00.799Z,10.6
2023-04-11T18:35:27.500Z,10.6
2023-04-11T18:37:54.220Z,10.4
2023-04-11T18:40:20.894Z,10.1
2023-04-11T18:42:47.561Z,9.8
2023-04-11T18:45:14.201Z,9.6
2023-04-11T18:47:40.877Z,9.4
2023-04-11T18:50:07.571Z,9.4
2023-04-11T18:52:34.309Z,9.3
2023-04-11T18:55:00.977Z,9.3
2023-04-11T18:57:27.511Z,9.3
2023-04-11T18:59:54.275Z,9.3
2023-04-11T19:02:19.528Z,9.2
2023-04-11T19:04:46.239Z,9.1
2023-04-11T19:07:12.825Z,8.9
2023-04-11T19:09:39.593Z,8.7
2023-04-11T19:12:06.288Z,8.6
2023-04-11T19:14:32.963Z,8.4
2023-04-11T19:16:59.536Z,8.2
2023-04-11T19:19:26.331Z,8.2
2023-04-11T19:21:52.967Z,8
2023-04-11T19:24:19.536Z,7.9
2023-04-11T19:26:46.233Z,7.7
2023-04-11T19:29:13.092Z,7.7
2023-04-11T19:31:39.793Z,7.7
2023-04-11T19:34:04.822Z,7.7
2023-04-11T19:36:31.511Z,7.7
2023-04-11T19:38:58.300Z,7.7
2023-04-11T19:41:24.914Z,7.6
2023-04-11T19:43:51.546Z,7.6
2023-04-11T19:46:18.393Z,7.6
2023-04-11T19:48:45.133Z,7.5
2023-04-11T19:51:11.886Z,7.4
2023-04-11T19:53:38.451Z,7.3
2023-04-11T19:56:04.971Z,7.3
2023-04-11T19:58:31.802Z,7.2
2023-04-11T20:00:58.412Z,7.2
2023-04-11T20:03:25.188Z,7.1
2023-04-11T20:05:50.315Z,7.2
2023-04-11T20:08:17.093Z,7.2
2023-04-11T20:10:43.794Z,7.1
2023-04-11T20:13:10.465Z,7
2023-04-11T20:15:37.175Z,7
2023-04-11T20:18:03.690Z,6.9
2023-04-11T20:20:30.481Z,6.9
2023-04-11T20:22:57.085Z,6.9
2023-04-11T20:25:23.749Z,6.9
2023-04-11T20:27:50.559Z,6.8
2023-04-11T20:30:17.091Z,6.7
2023-04-11T20:32:43.790Z,6.7
2023-04-11T20:35:10.550Z,6.7
2023-04-11T20:37:35.829Z,6.7
2023-04-11T20:40:02.441Z,6.6
2023-04-11T20:42:29.187Z,6.7
2023-04-11T20:44:55.775Z,6.7
2023-04-11T20:47:22.448Z,6.7
2023-04-11T20:49:49.226Z,6.7
2023-04-11T20:52:15.939Z,6.8
2023-04-11T20:54:42.534Z,6.8
2023-04-11T20:57:09.410Z,6.8
2023-04-11T20:59:35.863Z,6.8
2023-04-11T21:02:02.631Z,6.9
2023-04-11T21:04:29.230Z,7
2023-04-11T21:06:56.045Z,7
2023-04-11T21:09:21.180Z,7
2023-04-11T21:11:47.821Z,7
2023-04-11T21:14:14.625Z,7
2023-04-11T21:16:41.330Z,6.9
2023-04-11T21:19:07.881Z,6.9
2023-04-11T21:21:34.557Z,7
2023-04-11T21:24:01.424Z,7.1
2023-04-11T21:26:28.068Z,7.1
2023-04-11T21:28:54.705Z,7.1
2023-04-11T21:31:21.313Z,7
2023-04-11T21:33:48.186Z,7
2023-04-11T21:38:41.395Z,7.1
2023-04-11T21:41:06.744Z,7
2023-04-11T21:43:33.390Z,7
2023-04-11T21:45:59.969Z,7
2023-04-11T21:48:26.745Z,7
2023-04-11T21:50:53.442Z,7
2023-04-11T21:53:20.161Z,7.1
2023-04-11T21:55:46.781Z,7.2
2023-04-11T21:58:13.391Z,7.3
2023-04-11T22:00:40.214Z,7.4
2023-04-11T22:03:06.823Z,7.4
2023-04-11T22:05:33.494Z,7.5
2023-04-11T22:08:00.211Z,7.4
2023-04-11T22:10:26.944Z,7.4
2023-04-11T22:12:52.102Z,7.4
2023-04-11T22:15:18.734Z,7.3
2023-04-11T22:17:45.523Z,7.2
2023-04-11T22:20:12.101Z,7.2
2023-04-11T22:22:38.786Z,7.2
2023-04-11T22:25:05.461Z,7.2
2023-04-11T22:27:32.239Z,7.1
2023-04-11T22:29:58.845Z,7.1
2023-04-11T22:32:25.513Z,7
2023-04-11T22:34:52.198Z,7
2023-04-11T22:37:19.035Z,7
2023-04-11T22:39:45.573Z,7
2023-04-11T22:42:12.324Z,7
2023-04-11T22:44:37.575Z,7
2023-04-11T22:47:04.172Z,7
2023-04-11T22:49:30.850Z,7
2023-04-11T22:51:57.624Z,7
2023-04-11T22:54:24.359Z,7
2023-04-11T22:56:51.066Z,7.1
2023-04-11T22:59:17.588Z,7.1
2023-04-11T23:01:44.375Z,7.1
2023-04-11T23:04:10.949Z,7.2
2023-04-11T23:06:37.809Z,7.2
2023-04-11T23:09:04.377Z,7.2
2023-04-11T23:11:31.007Z,7.3
2023-04-11T23:13:57.695Z,7.3
2023-04-11T23:16:23.040Z,7.2
2023-04-11T23:18:49.751Z,7.2
2023-04-11T23:21:16.332Z,7.3
2023-04-11T23:23:43.151Z,7.3
2023-04-11T23:26:09.697Z,7.3
2023-04-11T23:28:36.467Z,7.3
2023-04-11T23:31:01.641Z,7.2
2023-04-11T23:33:28.401Z,7.2
2023-04-11T23:35:55.049Z,7.2
2023-04-11T23:38:21.906Z,7.2
2023-04-11T23:40:48.468Z,7.2
2023-04-11T23:43:15.155Z,7.2
2023-04-11T23:45:41.688Z,7.2
2023-04-11T23:48:08.392Z,7.2
2023-04-11T23:50:35.162Z,7.2
2023-04-11T23:53:01.915Z,7.2
2023-04-11T23:55:28.485Z,7.2
2023-04-11T23:57:55.188Z,7.2
